Longueuil, Canada
Current Conditions -  °F | °C
As of 10:30 AM on Monday 24 Nov 2014 (Local Time) from CYHU Reporting Station
Light Rain Light Rain  
Wind Chill: 52°   Ceiling: 4400
Heat Index: 52°   Visibility: 8mi
Dew Point: 48°   Wind: 23mph
Humidity: 88%   Direction: 160°SSE
Pressure: 29.4"   Gusts: 31mph
Location:  45.54°N, 73.49°W
Report Text: CYHU 241530Z AUTO 16020G27KT 8SM -RA SCT009 BKN044 OVC050 11/09 A2940 RMK PRESFR SLP956 DENSITY ALT 200FT
Loading
Personal Weather Stations






























Interactive Weather Map New forecast layout! Learn more

10-Day Weather Forecast

Advertisements
Track Severe Weather on mobile